sensor_id;sensor_type;location;lat;lon;timestamp;pressure;altitude;pressure_sealevel;temperature;humidity
25650;BME280;13505;45.196;5.696;2022-08-04T04:40:45;99021.59;;;26.55;43.43
25650;BME280;13505;45.196;5.696;2022-08-04T04:55:42;99019.91;;;26.23;44.09
25650;BME280;13505;45.196;5.696;2022-08-04T05:10:45;99022.75;;;26.29;44.42
25650;BME280;13505;45.196;5.696;2022-08-04T05:15:41;99021.53;;;26.40;44.27
25650;BME280;13505;45.196;5.696;2022-08-04T05:20:41;99024.38;;;26.39;44.21
25650;BME280;13505;45.196;5.696;2022-08-04T05:26:00;99030.19;;;26.59;44.07
25650;BME280;13505;45.196;5.696;2022-08-04T05:31:01;99035.63;;;26.82;43.50
25650;BME280;13505;45.196;5.696;2022-08-04T05:35:56;99041.03;;;26.82;44.08
25650;BME280;13505;45.196;5.696;2022-08-04T05:40:49;99035.72;;;26.66;44.12
25650;BME280;13505;45.196;5.696;2022-08-04T05:45:40;99034.09;;;26.88;44.02
25650;BME280;13505;45.196;5.696;2022-08-04T05:50:32;99038.41;;;26.97;43.90
25650;BME280;13505;45.196;5.696;2022-08-04T05:55:22;99050.75;;;27.00;43.43
25650;BME280;13505;45.196;5.696;2022-08-04T06:00:15;99044.75;;;26.50;44.75
25650;BME280;13505;45.196;5.696;2022-08-04T06:05:08;99046.41;;;26.59;44.75
25650;BME280;13505;45.196;5.696;2022-08-04T06:10:00;99047.44;;;26.58;44.61
25650;BME280;13505;45.196;5.696;2022-08-04T06:14:53;99049.03;;;26.44;45.27
25650;BME280;13505;45.196;5.696;2022-08-04T06:19:44;99050.50;;;26.55;44.91
25650;BME280;13505;45.196;5.696;2022-08-04T06:24:37;99052.97;;;26.33;45.11
25650;BME280;13505;45.196;5.696;2022-08-04T06:29:30;99060.56;;;27.01;43.89
25650;BME280;13505;45.196;5.696;2022-08-04T06:34:31;99046.47;;;27.44;42.54
25650;BME280;13505;45.196;5.696;2022-08-04T06:39:23;99056.09;;;27.47;42.03
25650;BME280;13505;45.196;5.696;2022-08-04T06:44:15;99056.81;;;27.64;41.71
25650;BME280;13505;45.196;5.696;2022-08-04T06:49:07;99054.31;;;27.92;41.08
25650;BME280;13505;45.196;5.696;2022-08-04T06:53:57;99058.94;;;28.22;40.01
25650;BME280;13505;45.196;5.696;2022-08-04T06:58:49;99055.56;;;28.56;39.35
25650;BME280;13505;45.196;5.696;2022-08-04T07:03:41;99057.16;;;28.66;38.98
25650;BME280;13505;45.196;5.696;2022-08-04T07:08:34;99050.88;;;29.46;37.90
25650;BME280;13505;45.196;5.696;2022-08-04T07:13:25;99051.56;;;29.90;37.03
25650;BME280;13505;45.196;5.696;2022-08-04T07:18:16;99048.13;;;29.74;37.14
25650;BME280;13505;45.196;5.696;2022-08-04T07:23:07;99055.38;;;29.96;36.21
25650;BME280;13505;45.196;5.696;2022-08-04T07:27:59;99047.00;;;30.32;35.72
25650;BME280;13505;45.196;5.696;2022-08-04T07:32:49;99062.84;;;30.64;34.85
25650;BME280;13505;45.196;5.696;2022-08-04T07:37:40;99057.88;;;29.97;36.19
25650;BME280;13505;45.196;5.696;2022-08-04T07:42:30;99050.78;;;29.61;36.40
25650;BME280;13505;45.196;5.696;2022-08-04T07:47:21;99048.75;;;30.05;36.06
25650;BME280;13505;45.196;5.696;2022-08-04T07:52:12;99044.06;;;30.83;34.69
25650;BME280;13505;45.196;5.696;2022-08-04T07:57:02;99039.06;;;31.20;33.31
25650;BME280;13505;45.196;5.696;2022-08-04T08:01:53;99031.31;;;31.64;33.16
25650;BME280;13505;45.196;5.696;2022-08-04T08:06:44;99024.31;;;32.09;32.91
25650;BME280;13505;45.196;5.696;2022-08-04T08:11:34;99028.97;;;32.93;30.56
25650;BME280;13505;45.196;5.696;2022-08-04T08:16:25;99030.81;;;32.99;30.60
25650;BME280;13505;45.196;5.696;2022-08-04T08:21:19;99023.44;;;32.22;31.64
25650;BME280;13505;45.196;5.696;2022-08-04T08:26:10;99022.06;;;31.92;32.05
25650;BME280;13505;45.196;5.696;2022-08-04T08:31:00;99010.94;;;33.17;30.51
25650;BME280;13505;45.196;5.696;2022-08-04T08:36:03;99016.72;;;33.27;30.70
25650;BME280;13505;45.196;5.696;2022-08-04T08:46:32;99009.84;;;33.44;30.31
25650;BME280;13505;45.196;5.696;2022-08-04T08:51:37;98998.91;;;34.86;28.19
25650;BME280;13505;45.196;5.696;2022-08-04T09:12:32;98980.88;;;36.22;26.53
25650;BME280;13505;45.196;5.696;2022-08-04T09:17:29;98989.03;;;34.85;27.85
25650;BME280;13505;45.196;5.696;2022-08-04T09:22:40;98972.00;;;36.31;26.19
25650;BME280;13505;45.196;5.696;2022-08-04T09:37:39;98963.25;;;38.11;24.46
25650;BME280;13505;45.196;5.696;2022-08-04T09:43:01;98956.91;;;38.10;24.85
25650;BME280;13505;45.196;5.696;2022-08-04T09:47:58;98960.66;;;38.27;24.94
25650;BME280;13505;45.196;5.696;2022-08-04T09:57:56;98950.34;;;38.66;24.82
25650;BME280;13505;45.196;5.696;2022-08-04T10:02:52;98952.03;;;39.05;24.13
25650;BME280;13505;45.196;5.696;2022-08-04T10:07:56;98938.50;;;38.99;24.56
25650;BME280;13505;45.196;5.696;2022-08-04T10:23:00;98917.88;;;39.49;23.31
25650;BME280;13505;45.196;5.696;2022-08-04T10:27:53;98909.63;;;39.60;23.64
25650;BME280;13505;45.196;5.696;2022-08-04T10:42:46;98888.56;;;40.17;22.02
25650;BME280;13505;45.196;5.696;2022-08-04T10:47:53;98881.44;;;40.42;21.42
25650;BME280;13505;45.196;5.696;2022-08-04T10:52:56;98881.16;;;40.59;21.50
25650;BME280;13505;45.196;5.696;2022-08-04T10:58:13;98876.19;;;40.51;21.04
25650;BME280;13505;45.196;5.696;2022-08-04T11:03:18;98873.72;;;40.76;20.78
25650;BME280;13505;45.196;5.696;2022-08-04T11:08:28;98864.03;;;40.88;20.46
25650;BME280;13505;45.196;5.696;2022-08-04T11:13:24;98865.41;;;40.86;20.74
25650;BME280;13505;45.196;5.696;2022-08-04T11:18:25;98854.03;;;40.93;20.70
25650;BME280;13505;45.196;5.696;2022-08-04T11:23:26;98846.53;;;41.14;20.34
25650;BME280;13505;45.196;5.696;2022-08-04T11:28:24;98842.94;;;41.19;19.99
25650;BME280;13505;45.196;5.696;2022-08-04T11:38:31;98827.78;;;41.00;20.28
25650;BME280;13505;45.196;5.696;2022-08-04T11:43:35;98820.81;;;41.19;19.58
25650;BME280;13505;45.196;5.696;2022-08-04T11:48:33;98814.09;;;41.35;19.36
25650;BME280;13505;45.196;5.696;2022-08-04T11:53:26;98806.53;;;41.56;19.16
25650;BME280;13505;45.196;5.696;2022-08-04T11:58:17;98803.50;;;41.63;19.42
25650;BME280;13505;45.196;5.696;2022-08-04T12:03:26;98810.88;;;41.78;19.14
25650;BME280;13505;45.196;5.696;2022-08-04T12:18:22;98813.19;;;40.79;19.65
25650;BME280;13505;45.196;5.696;2022-08-04T12:23:19;98797.63;;;41.04;19.54
25650;BME280;13505;45.196;5.696;2022-08-04T12:28:17;98786.44;;;41.35;19.48
25650;BME280;13505;45.196;5.696;2022-08-04T12:33:18;98782.19;;;41.58;18.92
25650;BME280;13505;45.196;5.696;2022-08-04T12:38:11;98778.25;;;41.75;18.75
25650;BME280;13505;45.196;5.696;2022-08-04T12:43:17;98773.34;;;42.02;18.48
25650;BME280;13505;45.196;5.696;2022-08-04T12:48:09;98769.53;;;41.92;18.02
25650;BME280;13505;45.196;5.696;2022-08-04T12:52:59;98765.13;;;41.91;18.03
25650;BME280;13505;45.196;5.696;2022-08-04T12:57:52;98768.75;;;41.87;17.95
25650;BME280;13505;45.196;5.696;2022-08-04T13:02:43;98762.22;;;41.62;17.74
25650;BME280;13505;45.196;5.696;2022-08-04T13:07:39;98756.28;;;41.39;17.89
25650;BME280;13505;45.196;5.696;2022-08-04T13:12:32;98762.91;;;40.77;18.15
25650;BME280;13505;45.196;5.696;2022-08-04T13:17:23;98755.44;;;40.57;18.16
25650;BME280;13505;45.196;5.696;2022-08-04T13:22:23;98763.22;;;40.39;18.61
25650;BME280;13505;45.196;5.696;2022-08-04T13:27:16;98749.97;;;40.10;18.42
25650;BME280;13505;45.196;5.696;2022-08-04T13:32:09;98751.31;;;39.71;19.48
25650;BME280;13505;45.196;5.696;2022-08-04T13:37:01;98766.66;;;39.36;19.83
25650;BME280;13505;45.196;5.696;2022-08-04T13:41:54;98763.00;;;39.10;19.71
25650;BME280;13505;45.196;5.696;2022-08-04T13:46:52;98754.81;;;38.77;20.05
25650;BME280;13505;45.196;5.696;2022-08-04T13:51:54;98744.56;;;38.67;20.16
25650;BME280;13505;45.196;5.696;2022-08-04T13:56:48;98753.06;;;38.60;20.41
25650;BME280;13505;45.196;5.696;2022-08-04T14:01:43;98754.81;;;38.39;20.41
25650;BME280;13505;45.196;5.696;2022-08-04T14:06:35;98764.13;;;38.28;21.33
25650;BME280;13505;45.196;5.696;2022-08-04T14:16:24;98756.41;;;37.69;22.86
25650;BME280;13505;45.196;5.696;2022-08-04T14:21:16;98749.03;;;37.48;23.09
25650;BME280;13505;45.196;5.696;2022-08-04T14:31:21;98755.69;;;36.85;26.34
25650;BME280;13505;45.196;5.696;2022-08-04T14:36:12;98759.81;;;36.31;27.69
25650;BME280;13505;45.196;5.696;2022-08-04T14:41:02;98761.88;;;36.41;27.77
25650;BME280;13505;45.196;5.696;2022-08-04T14:46:03;98761.31;;;36.39;28.17
25650;BME280;13505;45.196;5.696;2022-08-04T14:50:53;98746.75;;;36.21;28.30
25650;BME280;13505;45.196;5.696;2022-08-04T14:55:48;98740.19;;;36.39;28.39
25650;BME280;13505;45.196;5.696;2022-08-04T15:00:39;98747.59;;;36.22;27.11
25650;BME280;13505;45.196;5.696;2022-08-04T15:05:30;98757.16;;;36.19;26.28
25650;BME280;13505;45.196;5.696;2022-08-04T15:10:20;98756.63;;;36.05;27.74
25650;BME280;13505;45.196;5.696;2022-08-04T15:15:11;98758.63;;;35.63;28.65
25650;BME280;13505;45.196;5.696;2022-08-04T15:20:02;98745.19;;;35.62;28.96
25650;BME280;13505;45.196;5.696;2022-08-04T15:24:52;98745.31;;;35.26;29.82
25650;BME280;13505;45.196;5.696;2022-08-04T15:29:44;98744.28;;;35.03;29.66
25650;BME280;13505;45.196;5.696;2022-08-04T15:39:43;98759.66;;;35.16;28.95
25650;BME280;13505;45.196;5.696;2022-08-04T15:49:41;98756.56;;;34.89;29.33
25650;BME280;13505;45.196;5.696;2022-08-04T15:54:32;98755.25;;;34.91;29.51
25650;BME280;13505;45.196;5.696;2022-08-04T16:15:38;98762.75;;;34.36;31.40
25650;BME280;13505;45.196;5.696;2022-08-04T16:20:29;98760.31;;;34.59;31.65
25650;BME280;13505;45.196;5.696;2022-08-04T16:25:44;98757.31;;;34.60;31.88
25650;BME280;13505;45.196;5.696;2022-08-04T16:30:40;98750.66;;;34.56;31.97
25650;BME280;13505;45.196;5.696;2022-08-04T16:35:30;98759.06;;;34.78;31.40
25650;BME280;13505;45.196;5.696;2022-08-04T16:40:34;98750.50;;;34.51;32.53
25650;BME280;13505;45.196;5.696;2022-08-04T16:50:33;98770.78;;;33.65;33.81
25650;BME280;13505;45.196;5.696;2022-08-04T16:55:26;98762.97;;;34.11;33.16
25650;BME280;13505;45.196;5.696;2022-08-04T17:00:26;98769.53;;;33.91;33.05
25650;BME280;13505;45.196;5.696;2022-08-04T17:05:21;98767.56;;;33.99;32.19
25650;BME280;13505;45.196;5.696;2022-08-04T17:10:12;98759.19;;;34.24;30.54
25650;BME280;13505;45.196;5.696;2022-08-04T17:15:03;98753.75;;;34.60;29.78
25650;BME280;13505;45.196;5.696;2022-08-04T17:19:53;98760.41;;;34.76;29.58
25650;BME280;13505;45.196;5.696;2022-08-04T17:24:43;98746.44;;;34.77;29.19
25650;BME280;13505;45.196;5.696;2022-08-04T17:29:34;98758.16;;;34.61;29.17
25650;BME280;13505;45.196;5.696;2022-08-04T17:34:24;98762.06;;;34.65;29.24
25650;BME280;13505;45.196;5.696;2022-08-04T17:39:18;98759.56;;;34.51;29.60
25650;BME280;13505;45.196;5.696;2022-08-04T17:44:09;98773.59;;;34.31;29.74
25650;BME280;13505;45.196;5.696;2022-08-04T17:54:04;98772.38;;;34.15;29.40
25650;BME280;13505;45.196;5.696;2022-08-04T18:03:56;98779.31;;;33.87;29.96
25650;BME280;13505;45.196;5.696;2022-08-04T18:08:57;98782.97;;;33.50;30.31
25650;BME280;13505;45.196;5.696;2022-08-04T18:13:52;98779.91;;;33.59;30.68
25650;BME280;13505;45.196;5.696;2022-08-04T18:18:43;98778.94;;;33.34;31.04
25650;BME280;13505;45.196;5.696;2022-08-04T18:23:33;98792.56;;;33.04;31.50
25650;BME280;13505;45.196;5.696;2022-08-04T18:28:24;98790.13;;;32.95;31.89
25650;BME280;13505;45.196;5.696;2022-08-04T18:33:15;98801.50;;;32.85;32.31
25650;BME280;13505;45.196;5.696;2022-08-04T18:38:05;98810.09;;;32.89;32.04
25650;BME280;13505;45.196;5.696;2022-08-04T18:42:56;98822.56;;;32.60;32.16
25650;BME280;13505;45.196;5.696;2022-08-04T18:47:46;98816.44;;;32.64;32.28
25650;BME280;13505;45.196;5.696;2022-08-04T18:52:37;98818.69;;;32.67;32.34
25650;BME280;13505;45.196;5.696;2022-08-04T18:57:28;98825.44;;;32.65;32.66
25650;BME280;13505;45.196;5.696;2022-08-04T19:02:22;98821.09;;;32.82;32.15
25650;BME280;13505;45.196;5.696;2022-08-04T19:07:12;98831.00;;;32.77;32.37
25650;BME280;13505;45.196;5.696;2022-08-04T19:12:03;98834.16;;;32.55;32.57
25650;BME280;13505;45.196;5.696;2022-08-04T19:16:53;98839.88;;;32.72;32.44
25650;BME280;13505;45.196;5.696;2022-08-04T19:21:44;98856.13;;;32.60;33.33
25650;BME280;13505;45.196;5.696;2022-08-04T19:26:35;98865.22;;;32.54;33.06
25650;BME280;13505;45.196;5.696;2022-08-04T19:31:25;98867.94;;;32.54;33.01
25650;BME280;13505;45.196;5.696;2022-08-04T19:36:16;98874.28;;;32.48;33.00
25650;BME280;13505;45.196;5.696;2022-08-04T19:41:07;98880.25;;;32.38;33.16
25650;BME280;13505;45.196;5.696;2022-08-04T19:45:57;98882.13;;;31.98;34.09
25650;BME280;13505;45.196;5.696;2022-08-04T19:50:48;98890.13;;;31.93;34.46
25650;BME280;13505;45.196;5.696;2022-08-04T19:55:39;98907.75;;;31.91;34.51
25650;BME280;13505;45.196;5.696;2022-08-04T20:00:30;98915.31;;;31.88;34.35
25650;BME280;13505;45.196;5.696;2022-08-04T20:05:20;98922.91;;;31.80;34.40
25650;BME280;13505;45.196;5.696;2022-08-04T20:10:11;98921.03;;;31.80;34.25
25650;BME280;13505;45.196;5.696;2022-08-04T20:15:01;98924.84;;;31.52;34.91
25650;BME280;13505;45.196;5.696;2022-08-04T20:19:52;98925.41;;;31.74;34.88
25650;BME280;13505;45.196;5.696;2022-08-04T20:24:43;98926.53;;;31.46;34.93
25650;BME280;13505;45.196;5.696;2022-08-04T20:29:33;98930.13;;;31.47;35.18
25650;BME280;13505;45.196;5.696;2022-08-04T20:34:24;98930.72;;;31.49;35.19
25650;BME280;13505;45.196;5.696;2022-08-04T20:39:14;98933.66;;;31.47;35.05
25650;BME280;13505;45.196;5.696;2022-08-04T20:44:04;98939.78;;;31.29;35.84
25650;BME280;13505;45.196;5.696;2022-08-04T20:48:56;98931.81;;;31.28;35.17
25650;BME280;13505;45.196;5.696;2022-08-04T20:53:46;98938.09;;;31.28;35.77
25650;BME280;13505;45.196;5.696;2022-08-04T20:58:36;98941.88;;;30.94;36.51
25650;BME280;13505;45.196;5.696;2022-08-04T21:03:27;98949.81;;;31.15;36.08
25650;BME280;13505;45.196;5.696;2022-08-04T21:08:17;98949.41;;;30.98;36.46
25650;BME280;13505;45.196;5.696;2022-08-04T21:13:07;98952.78;;;31.07;36.37
25650;BME280;13505;45.196;5.696;2022-08-04T21:17:58;98955.06;;;30.83;36.86
25650;BME280;13505;45.196;5.696;2022-08-04T21:22:48;98948.16;;;30.81;37.17
25650;BME280;13505;45.196;5.696;2022-08-04T21:27:38;98956.69;;;30.50;37.82
25650;BME280;13505;45.196;5.696;2022-08-04T21:32:29;98954.78;;;30.58;37.84
25650;BME280;13505;45.196;5.696;2022-08-04T21:37:19;98951.28;;;30.71;37.52
25650;BME280;13505;45.196;5.696;2022-08-04T21:42:09;98965.94;;;30.76;37.71
25650;BME280;13505;45.196;5.696;2022-08-04T21:47:00;98964.44;;;30.60;37.67
25650;BME280;13505;45.196;5.696;2022-08-04T21:51:50;98964.63;;;30.52;37.82
25650;BME280;13505;45.196;5.696;2022-08-04T21:56:41;98962.50;;;30.34;38.02
